createdAt,value
2019-01-03T00:01:28.714Z,98991.67
2019-01-03T00:04:18.883Z,98992.47
2019-01-03T00:07:04.534Z,98987.63
2019-01-03T00:10:00.470Z,98993.27
2019-01-03T00:13:04.561Z,99003.20
2019-01-03T00:16:10.106Z,99004.57
2019-01-03T00:19:09.530Z,99003.21
2019-01-03T00:21:56.669Z,99010.47
2019-01-03T00:24:40.051Z,99012.34
2019-01-03T00:27:33.434Z,99019.34
2019-01-03T00:30:19.572Z,99015.85
2019-01-03T00:33:20.492Z,99016.66
2019-01-03T00:36:13.786Z,99020.39
2019-01-03T00:39:12.968Z,99023.91
2019-01-03T00:42:06.154Z,99033.27
2019-01-03T00:44:51.968Z,99033.03
2019-01-03T00:47:42.096Z,99034.11
2019-01-03T00:50:33.621Z,99035.16
2019-01-03T00:53:33.091Z,99035.47
2019-01-03T00:56:23.136Z,99032.77
2019-01-03T00:58:59.426Z,99034.65
2019-01-03T01:01:46.540Z,99040.02
2019-01-03T01:04:32.545Z,99045.64
2019-01-03T01:07:37.826Z,99051.56
2019-01-03T01:10:28.194Z,99059.09
2019-01-03T01:13:14.129Z,99075.47
2019-01-03T01:16:10.210Z,99076.80
2019-01-03T01:19:12.476Z,99077.59
2019-01-03T01:21:58.284Z,99077.34
2019-01-03T01:24:45.567Z,99082.69
2019-01-03T01:27:31.507Z,99079.75
2019-01-03T01:30:21.726Z,99081.11
2019-01-03T01:33:12.028Z,99077.61
2019-01-03T01:35:57.747Z,99083.80
2019-01-03T01:38:44.824Z,99084.05
2019-01-03T01:41:41.163Z,99085.12
2019-01-03T01:44:28.266Z,99089.14
2019-01-03T01:47:26.531Z,99092.91
2019-01-03T01:50:13.697Z,99017.30
2019-01-03T01:53:03.817Z,99099.90
2019-01-03T01:55:56.678Z,99098.30
2019-01-03T01:58:33.758Z,99093.44
2019-01-03T02:01:19.766Z,99018.34
2019-01-03T02:04:09.882Z,99088.61
2019-01-03T02:07:14.939Z,99089.44
2019-01-03T02:10:13.957Z,99090.76
2019-01-03T02:13:01.082Z,99090.22
2019-01-03T02:15:54.297Z,99089.41
2019-01-03T02:18:56.547Z,99087.56
2019-01-03T02:21:58.867Z,99087.81
2019-01-03T02:24:44.543Z,99088.63
2019-01-03T02:27:30.433Z,99087.84
2019-01-03T02:30:26.040Z,99092.09
2019-01-03T02:33:28.512Z,99093.19
2019-01-03T02:36:15.643Z,98836.87
2019-01-03T02:39:11.928Z,99091.31
2019-01-03T02:42:08.510Z,99093.45
2019-01-03T02:44:51.924Z,99102.58
2019-01-03T02:47:39.130Z,99099.08
2019-01-03T02:50:25.293Z,99091.58
2019-01-03T02:53:11.222Z,99095.61
2019-01-03T02:56:01.126Z,99093.73
2019-01-03T02:58:51.083Z,99089.95
2019-01-03T03:01:43.974Z,99098.02
2019-01-03T03:04:26.614Z,99091.85
2019-01-03T03:07:13.691Z,98755.95
2019-01-03T03:09:59.468Z,99099.91
2019-01-03T03:12:40.865Z,99096.95
2019-01-03T03:15:37.094Z,99100.98
2019-01-03T03:18:27.390Z,99103.93
2019-01-03T03:21:10.195Z,99114.95
2019-01-03T03:24:00.140Z,99103.67
2019-01-03T03:26:44.958Z,99097.23
2019-01-03T03:29:30.737Z,99101.80
2019-01-03T03:32:23.904Z,99100.71
2019-01-03T03:35:10.102Z,99098.30
2019-01-03T03:37:55.945Z,99098.05
2019-01-03T03:40:43.165Z,99106.35
2019-01-03T03:43:30.823Z,99101.25
2019-01-03T03:46:18.024Z,99108.78
2019-01-03T03:49:17.371Z,99106.36
2019-01-03T03:52:04.579Z,99103.41
2019-01-03T03:54:50.257Z,99100.98
2019-01-03T03:57:36.366Z,99100.73
2019-01-03T04:00:23.865Z,99097.22
2019-01-03T04:03:14.178Z,99101.54
2019-01-03T04:06:07.354Z,99096.97
2019-01-03T04:09:03.583Z,99091.88
2019-01-03T04:11:53.742Z,99089.19
2019-01-03T04:14:40.887Z,99081.66
2019-01-03T04:17:22.617Z,99082.22
2019-01-03T04:20:18.718Z,99075.50
2019-01-03T04:23:08.791Z,99076.57
2019-01-03T04:25:54.542Z,99071.21
2019-01-03T04:28:40.723Z,99077.91
2019-01-03T04:31:39.193Z,99077.12
2019-01-03T04:34:44.522Z,99079.80
2019-01-03T04:37:30.256Z,99083.00
2019-01-03T04:40:17.966Z,99082.48
2019-01-03T04:43:08.086Z,99087.05
2019-01-03T04:46:07.493Z,99087.31
2019-01-03T04:48:53.680Z,99084.90
2019-01-03T04:51:43.522Z,99089.98
2019-01-03T04:54:29.555Z,99085.96
2019-01-03T04:57:13.043Z,99091.05
2019-01-03T05:00:12.289Z,99102.34
2019-01-03T05:03:17.924Z,99100.98
2019-01-03T05:06:23.642Z,99106.08
2019-01-03T05:09:17.841Z,99114.41
2019-01-03T05:12:00.315Z,99112.55
2019-01-03T05:14:50.440Z,99117.11
2019-01-03T05:17:55.689Z,99116.84
2019-01-03T05:20:34.337Z,99116.30
2019-01-03T05:23:20.299Z,99113.34
2019-01-03T05:26:19.754Z,99120.59
2019-01-03T05:29:05.606Z,99119.52
2019-01-03T05:31:51.455Z,99124.61
2019-01-03T05:34:38.590Z,99120.05
2019-01-03T05:37:28.091Z,99132.13
2019-01-03T05:40:13.833Z,99134.55
2019-01-03T05:43:04.394Z,99131.59
2019-01-03T05:45:50.405Z,99132.65
2019-01-03T05:48:46.338Z,99136.67
2019-01-03T05:51:36.453Z,99136.41
2019-01-03T05:54:29.664Z,99134.54
2019-01-03T05:57:31.931Z,99134.28
2019-01-03T06:00:27.865Z,99136.42
2019-01-03T06:03:13.662Z,99138.81
2019-01-03T06:06:09.667Z,99143.38
2019-01-03T06:09:11.908Z,99146.88
2019-01-03T06:12:01.662Z,99145.01
2019-01-03T06:14:47.604Z,99145.53
2019-01-03T06:17:34.711Z,99150.38
2019-01-03T06:20:17.745Z,99148.77
2019-01-03T06:23:14.821Z,99151.17
2019-01-03T06:26:10.931Z,99156.80
2019-01-03T06:28:56.943Z,99158.42
2019-01-03T06:31:42.852Z,99161.63
2019-01-03T06:34:38.000Z,99167.80
2019-01-03T06:37:28.614Z,99173.98
2019-01-03T06:40:15.748Z,99175.87
2019-01-03T06:43:00.270Z,99176.93
2019-01-03T06:45:46.228Z,99173.16
2019-01-03T06:48:33.306Z,99172.91
2019-01-03T06:51:29.261Z,99177.74
2019-01-03T06:54:14.857Z,99180.69
2019-01-03T06:57:13.941Z,99187.92
2019-01-03T07:00:13.428Z,99183.90
2019-01-03T07:03:00.552Z,99187.40
2019-01-03T07:05:50.701Z,99186.05
2019-01-03T07:08:40.854Z,99183.92
2019-01-03T07:11:26.561Z,99181.22
2019-01-03T07:14:12.657Z,99175.33
2019-01-03T07:16:58.332Z,99186.86
2019-01-03T07:20:00.777Z,99178.25
2019-01-03T07:22:53.899Z,99179.83
2019-01-03T07:25:39.981Z,99186.58
2019-01-03T07:28:27.130Z,99181.20
2019-01-03T07:31:26.847Z,99194.11
2019-01-03T07:34:22.061Z,99198.13
2019-01-03T07:37:09.222Z,99200.80
2019-01-03T07:39:56.381Z,99205.38
2019-01-03T07:42:42.018Z,99205.09
2019-01-03T07:45:27.969Z,99212.61
2019-01-03T07:48:10.265Z,99216.91
2019-01-03T07:51:09.497Z,99216.13
2019-01-03T07:53:55.300Z,99212.36
2019-01-03T07:56:42.412Z,99224.67
2019-01-03T07:59:24.736Z,99225.23
2019-01-03T08:02:27.261Z,99231.94
2019-01-03T08:05:29.686Z,99238.91
2019-01-03T08:08:25.771Z,99233.02
2019-01-03T08:11:12.919Z,99232.75
2019-01-03T08:14:15.446Z,99241.33
2019-01-03T08:17:07.350Z,99241.59
2019-01-03T08:19:57.202Z,99237.56
2019-01-03T08:22:42.973Z,99232.98
2019-01-03T08:25:45.234Z,99238.91
2019-01-03T08:28:32.302Z,99244.80
2019-01-03T08:31:25.414Z,99245.62
2019-01-03T08:34:11.029Z,99246.64
2019-01-03T08:36:58.110Z,99239.17
2019-01-03T08:40:03.587Z,99232.67
2019-01-03T08:42:54.773Z,99226.78
2019-01-03T08:45:42.581Z,99228.64
2019-01-03T08:48:28.293Z,99224.16
2019-01-03T08:51:14.301Z,99224.16
2019-01-03T08:54:12.617Z,99200.17
2019-01-03T08:56:58.590Z,99222.78
2019-01-03T08:59:44.210Z,99226.56
2019-01-03T09:02:49.525Z,99232.98
2019-01-03T09:05:51.950Z,99238.04
2019-01-03T09:08:41.815Z,99235.94
2019-01-03T09:11:34.893Z,99241.03
2019-01-03T09:14:20.683Z,99247.75
2019-01-03T09:17:16.804Z,99243.72
2019-01-03T09:20:02.478Z,99238.85
2019-01-03T09:22:41.175Z,99238.30
2019-01-03T09:25:28.238Z,99240.45
2019-01-03T09:28:21.622Z,99245.30
2019-01-03T09:31:07.952Z,99251.22
2019-01-03T09:34:03.165Z,99250.17
2019-01-03T09:36:50.273Z,99253.90
2019-01-03T09:39:36.319Z,99248.83
2019-01-03T09:42:29.537Z,99245.06
2019-01-03T09:44:57.658Z,99242.91
2019-01-03T09:47:25.779Z,99234.88
2019-01-03T09:49:54.110Z,99230.86
2019-01-03T09:52:25.691Z,99228.16
2019-01-03T09:54:54.362Z,99228.19
2019-01-03T09:57:22.809Z,99224.44
2019-01-03T09:59:51.419Z,99230.08
2019-01-03T10:02:19.506Z,99236.25
2019-01-03T10:04:47.626Z,99235.70
2019-01-03T10:07:16.209Z,99234.66
2019-01-03T10:09:47.316Z,99232.23
2019-01-03T10:12:15.433Z,99227.39
2019-01-03T10:14:43.828Z,99226.87
2019-01-03T10:17:12.232Z,99226.84
2019-01-03T10:19:42.758Z,99228.74
2019-01-03T10:22:12.028Z,99224.42
2019-01-03T10:24:41.141Z,99221.50
2019-01-03T10:27:10.325Z,99210.73
2019-01-03T10:29:40.775Z,99203.50
2019-01-03T10:32:09.899Z,99196.52
2019-01-03T10:34:38.158Z,99201.11
2019-01-03T10:37:07.188Z,99199.73
2019-01-03T10:39:36.592Z,99198.93
2019-01-03T10:42:05.623Z,99197.05
2019-01-03T10:44:35.013Z,99195.45
2019-01-03T10:47:03.800Z,99192.77
2019-01-03T10:49:32.878Z,99189.82
2019-01-03T10:52:01.120Z,99185.26
2019-01-03T10:54:31.587Z,99175.88
2019-01-03T10:57:00.088Z,99180.96
2019-01-03T10:59:28.251Z,99171.30
2019-01-03T11:01:57.391Z,99167.80
2019-01-03T11:04:25.624Z,99169.69
2019-01-03T11:06:53.798Z,99158.16
2019-01-03T11:09:22.033Z,99163.26
2019-01-03T11:11:50.235Z,99151.98
2019-01-03T11:14:18.392Z,99149.58
2019-01-03T11:16:46.578Z,99149.55
2019-01-03T11:19:14.737Z,99145.55
2019-01-03T11:21:42.917Z,99143.38
2019-01-03T11:24:11.108Z,99138.83
2019-01-03T11:26:39.262Z,99131.33
2019-01-03T11:29:07.471Z,99127.84
2019-01-03T11:31:35.598Z,99120.05
2019-01-03T11:34:03.813Z,99112.25
2019-01-03T11:36:31.966Z,99108.77
2019-01-03T11:39:00.115Z,99109.86
2019-01-03T11:41:28.285Z,99103.42
2019-01-03T11:43:56.437Z,99103.14
2019-01-03T11:46:24.646Z,99100.45
2019-01-03T11:48:52.848Z,99097.50
2019-01-03T11:51:20.998Z,99090.27
2019-01-03T11:53:49.204Z,99091.06
2019-01-03T11:56:17.328Z,99081.41
2019-01-03T11:58:45.485Z,99077.91
2019-01-03T12:01:13.679Z,99070.69
2019-01-03T12:03:41.895Z,99062.89
2019-01-03T12:06:10.093Z,99062.09
2019-01-03T12:08:38.257Z,99055.39
2019-01-03T12:11:06.433Z,99059.41
2019-01-03T12:13:34.661Z,99064.77
2019-01-03T12:16:02.828Z,99065.31
2019-01-03T12:18:31.041Z,99065.30
2019-01-03T12:20:59.275Z,99067.72
2019-01-03T12:23:27.436Z,99062.07
2019-01-03T12:25:55.549Z,99055.66
2019-01-03T12:28:23.741Z,99065.30
2019-01-03T12:30:51.890Z,99055.91
2019-01-03T12:33:20.003Z,99037.39
2019-01-03T12:35:48.123Z,99034.17
2019-01-03T12:38:16.241Z,99034.45
2019-01-03T12:40:44.369Z,99035.79
2019-01-03T12:43:12.480Z,99048.41
2019-01-03T12:45:40.643Z,99049.47
2019-01-03T12:48:08.765Z,99044.38
2019-01-03T12:50:36.886Z,99049.20
2019-01-03T12:53:04.996Z,99055.09
2019-01-03T12:55:33.122Z,99051.89
2019-01-03T12:58:01.267Z,99050.30
2019-01-03T13:00:29.381Z,99049.74
2019-01-03T13:02:57.538Z,99048.94
2019-01-03T13:05:25.662Z,99051.64
2019-01-03T13:07:53.790Z,99048.13
2019-01-03T13:10:21.902Z,99044.38
2019-01-03T13:12:50.039Z,99050.28
2019-01-03T13:15:18.162Z,99045.98
2019-01-03T13:17:46.283Z,99038.47
2019-01-03T13:20:14.393Z,99036.88
2019-01-03T13:22:42.543Z,99041.70
2019-01-03T13:25:10.661Z,99040.07
2019-01-03T13:27:38.781Z,99048.68
2019-01-03T13:30:08.077Z,99043.33
2019-01-03T13:32:36.366Z,99046.80
2019-01-03T13:35:04.549Z,99043.33
2019-01-03T13:37:32.665Z,99043.58
2019-01-03T13:40:01.244Z,99047.06
2019-01-03T13:42:29.397Z,99044.38
2019-01-03T13:44:57.674Z,99041.98
2019-01-03T13:47:25.824Z,99047.07
2019-01-03T13:49:54.032Z,99048.96
2019-01-03T13:52:22.164Z,99040.90
2019-01-03T13:54:50.302Z,99044.09
2019-01-03T13:57:18.437Z,99050.55
2019-01-03T13:59:46.606Z,99052.16
2019-01-03T14:02:14.829Z,99045.47
2019-01-03T14:04:43.024Z,99045.72
2019-01-03T14:07:11.211Z,99039.55
2019-01-03T14:09:39.482Z,99045.72
2019-01-03T14:12:07.617Z,99043.85
2019-01-03T14:14:35.834Z,99039.28
2019-01-03T14:17:03.959Z,99038.23
2019-01-03T14:19:32.081Z,99038.75
2019-01-03T14:22:00.263Z,99032.33
2019-01-03T14:24:28.412Z,99035.80
2019-01-03T14:26:56.587Z,99032.05
2019-01-03T14:29:24.798Z,99034.73
2019-01-03T14:31:52.960Z,99033.64
2019-01-03T14:34:21.082Z,99030.98
2019-01-03T14:36:49.263Z,99034.71
2019-01-03T14:39:17.405Z,99029.64
2019-01-03T14:41:45.585Z,99032.58
2019-01-03T14:44:13.730Z,99027.75
2019-01-03T14:46:41.886Z,99027.77
2019-01-03T14:49:10.053Z,99018.36
2019-01-03T14:51:38.223Z,99022.38
2019-01-03T14:54:06.428Z,99015.41
2019-01-03T14:56:34.596Z,99018.87
2019-01-03T14:59:02.784Z,99012.98
2019-01-03T15:01:30.924Z,99009.77
2019-01-03T15:03:59.134Z,99008.45
2019-01-03T15:06:27.285Z,99014.59
2019-01-03T15:08:55.638Z,99012.96
2019-01-03T15:11:23.809Z,99014.03
2019-01-03T15:13:51.946Z,99017.27
2019-01-03T15:16:20.146Z,99014.86
2019-01-03T15:18:48.282Z,99025.86
2019-01-03T15:21:16.457Z,99024.51
2019-01-03T15:23:44.679Z,99017.00
2019-01-03T15:26:12.858Z,99015.38
2019-01-03T15:28:41.065Z,99012.98
2019-01-03T15:31:09.225Z,99007.88
2019-01-03T15:33:37.449Z,99001.70
2019-01-03T15:36:05.666Z,98998.76
2019-01-03T15:38:33.846Z,98997.67
2019-01-03T15:41:02.018Z,99003.86
2019-01-03T15:46:23.611Z,99012.16
2019-01-03T15:48:51.758Z,99016.45
2019-01-03T15:51:20.012Z,99020.75
2019-01-03T15:53:48.231Z,99024.77
2019-01-03T15:56:16.406Z,99024.23
2019-01-03T15:58:44.542Z,99029.33
2019-01-03T16:01:12.778Z,99034.70
2019-01-03T16:03:40.962Z,99034.70
2019-01-03T16:06:09.161Z,99036.84
2019-01-03T16:08:37.307Z,99042.48
2019-01-03T16:11:05.495Z,99036.58
2019-01-03T16:13:33.741Z,99043.28
2019-01-03T16:16:02.006Z,99040.07
2019-01-03T16:18:30.235Z,99038.98
2019-01-03T16:20:58.385Z,99040.61
2019-01-03T16:23:26.601Z,99035.23
2019-01-03T16:25:54.801Z,99036.85
2019-01-03T16:28:22.981Z,99038.44
2019-01-03T16:30:51.166Z,99034.70
2019-01-03T16:33:19.371Z,99035.25
2019-01-03T16:35:48.275Z,99043.30
2019-01-03T16:38:17.306Z,99041.14
2019-01-03T16:40:45.425Z,99038.72
2019-01-03T16:43:13.553Z,99040.87
2019-01-03T16:45:41.690Z,99041.14
2019-01-03T16:48:09.834Z,99037.91
2019-01-03T16:50:37.951Z,99037.38
2019-01-03T16:53:06.200Z,99041.14
2019-01-03T16:55:34.336Z,99048.66
2019-01-03T16:58:02.468Z,99040.05
2019-01-03T17:00:30.626Z,99038.45
2019-01-03T17:02:58.744Z,99037.65
2019-01-03T17:05:26.907Z,99040.33
2019-01-03T17:07:55.017Z,99043.81
2019-01-03T17:10:23.143Z,99036.04
2019-01-03T17:12:51.274Z,99030.12
2019-01-03T17:15:19.403Z,99033.08
2019-01-03T17:17:47.525Z,99028.00
2019-01-03T17:20:15.650Z,99025.03
2019-01-03T17:22:43.806Z,99027.17
2019-01-03T17:25:13.106Z,99021.83
2019-01-03T17:27:41.234Z,99026.39
2019-01-03T17:30:10.251Z,99028.80
2019-01-03T17:32:38.341Z,99028.27
2019-01-03T17:35:06.915Z,99038.20
2019-01-03T17:37:35.051Z,99039.53
2019-01-03T17:40:03.443Z,99040.32
2019-01-03T17:42:31.560Z,99045.44
2019-01-03T17:44:59.677Z,99048.64
2019-01-03T17:47:27.888Z,99045.70
2019-01-03T17:49:56.010Z,99049.45
2019-01-03T17:52:24.146Z,99046.23
2019-01-03T17:54:52.326Z,99044.37
2019-01-03T17:57:20.486Z,99043.55
2019-01-03T17:59:48.605Z,99041.67
2019-01-03T18:02:16.720Z,99045.42
2019-01-03T18:04:44.881Z,99051.33
2019-01-03T18:07:13.001Z,99060.73
2019-01-03T18:09:41.171Z,99064.48
2019-01-03T18:12:09.286Z,99060.45
2019-01-03T18:14:37.398Z,99054.80
2019-01-03T18:17:05.530Z,99053.75
2019-01-03T18:19:33.646Z,99053.75
2019-01-03T18:22:01.774Z,99052.67
2019-01-03T18:24:29.893Z,99048.65
2019-01-03T18:26:58.181Z,99048.39
2019-01-03T18:29:26.299Z,99052.95
2019-01-03T18:31:54.420Z,99054.02
2019-01-03T18:34:22.536Z,99072.50
2019-01-03T18:36:50.882Z,99065.81
2019-01-03T18:39:18.997Z,99068.75
2019-01-03T18:41:47.134Z,99057.78
2019-01-03T18:44:15.266Z,99043.27
2019-01-03T18:46:43.442Z,99043.54
2019-01-03T18:49:11.576Z,99050.00
2019-01-03T18:51:39.798Z,99053.48
2019-01-03T18:54:07.921Z,99057.21
2019-01-03T18:56:36.044Z,99079.48
2019-01-03T18:59:04.170Z,99091.00
2019-01-03T19:01:32.386Z,99091.26
2019-01-03T19:04:00.551Z,99088.59
2019-01-03T19:06:28.689Z,99082.95
2019-01-03T19:08:57.334Z,99078.69
2019-01-03T19:11:25.447Z,99089.13
2019-01-03T19:13:54.262Z,99084.57
2019-01-03T19:16:22.331Z,99081.36
2019-01-03T19:18:51.067Z,99080.01
2019-01-03T19:21:19.145Z,99073.06
2019-01-03T19:23:48.540Z,99070.63
2019-01-03T19:26:16.633Z,99071.43
2019-01-03T19:28:45.277Z,99065.53
2019-01-03T19:31:13.357Z,99063.92
2019-01-03T19:33:41.493Z,99051.05
2019-01-03T19:36:09.715Z,99047.57
2019-01-03T19:38:37.921Z,99040.07
2019-01-03T19:41:06.083Z,99052.94
2019-01-03T19:43:34.209Z,99046.48
2019-01-03T19:46:02.480Z,99040.08
2019-01-03T19:48:30.629Z,99053.48
2019-01-03T19:50:58.786Z,99056.15
2019-01-03T19:53:26.945Z,99062.86
2019-01-03T19:55:55.093Z,99060.22
2019-01-03T19:58:23.297Z,99052.39
2019-01-03T20:00:51.459Z,99061.25
2019-01-03T20:03:19.774Z,99063.14
2019-01-03T20:05:48.246Z,99054.05
2019-01-03T20:08:16.411Z,99054.05
2019-01-03T20:10:45.265Z,99054.05
2019-01-03T20:13:13.390Z,99049.47
2019-01-03T20:15:42.146Z,99047.35
2019-01-03T20:18:10.382Z,99041.42
2019-01-03T20:20:39.862Z,99051.09
2019-01-03T20:23:08.106Z,99045.46
2019-01-03T20:25:36.704Z,99038.48
2019-01-03T20:28:04.810Z,99036.59
2019-01-03T20:30:33.085Z,99036.86
2019-01-03T20:33:01.283Z,99042.48
2019-01-03T20:35:29.436Z,99040.36
2019-01-03T20:37:58.112Z,99039.55
2019-01-03T20:40:26.200Z,99039.00
2019-01-03T20:42:54.387Z,99038.47
2019-01-03T20:45:22.622Z,99042.23
2019-01-03T20:47:51.290Z,99047.84
2019-01-03T20:50:19.425Z,99052.15
2019-01-03T20:52:47.593Z,99044.64
2019-01-03T20:55:15.774Z,99047.31
2019-01-03T20:57:43.929Z,99038.72
2019-01-03T21:00:12.792Z,99042.22
2019-01-03T21:02:40.955Z,99032.52
2019-01-03T21:05:09.103Z,99033.34
2019-01-03T21:07:37.265Z,99023.67
2019-01-03T21:10:06.159Z,99030.12
2019-01-03T21:12:34.289Z,99029.83
2019-01-03T21:15:02.547Z,99036.02
2019-01-03T21:17:30.719Z,99035.19
2019-01-03T21:19:58.887Z,99045.67
2019-01-03T21:22:27.058Z,99050.74
2019-01-03T21:24:55.211Z,99059.07
2019-01-03T21:27:23.401Z,99061.23
2019-01-03T21:29:51.568Z,99066.31
2019-01-03T21:32:19.738Z,99071.95
2019-01-03T21:34:47.914Z,99077.87
2019-01-03T21:37:16.103Z,99070.59
2019-01-03T21:39:44.268Z,99073.02
2019-01-03T21:42:12.459Z,99074.37
2019-01-03T21:44:40.610Z,99076.51
2019-01-03T21:47:08.866Z,99081.03
2019-01-03T21:49:37.013Z,99078.08
2019-01-03T21:52:05.202Z,99090.99
2019-01-03T21:54:33.503Z,99095.55
2019-01-03T21:57:01.673Z,99086.14
2019-01-03T21:59:30.015Z,99083.47
2019-01-03T22:01:59.176Z,99080.25
2019-01-03T22:04:27.549Z,99085.62
2019-01-03T22:06:55.999Z,99074.31
2019-01-03T22:09:24.183Z,99078.06
2019-01-03T22:11:52.431Z,99078.86
2019-01-03T22:14:20.750Z,99078.87
2019-01-03T22:16:48.941Z,99082.62
2019-01-03T22:19:17.481Z,99076.97
2019-01-03T22:21:45.914Z,99073.16
2019-01-03T22:24:14.473Z,99072.63
2019-01-03T22:26:42.756Z,99071.53
2019-01-03T22:29:11.007Z,99082.53
2019-01-03T22:31:39.188Z,99086.29
2019-01-03T22:34:07.441Z,99082.81
2019-01-03T22:36:35.810Z,99091.12
2019-01-03T22:39:04.317Z,99086.02
2019-01-03T22:41:32.530Z,99087.61
2019-01-03T22:44:00.726Z,99082.48
2019-01-03T22:46:28.912Z,99087.60
2019-01-03T22:48:57.083Z,99088.13
2019-01-03T22:51:25.254Z,99085.45
2019-01-03T22:53:53.450Z,99083.27
2019-01-03T22:56:21.655Z,99103.73
2019-01-03T22:58:49.896Z,99081.70
2019-01-03T23:01:18.130Z,99089.98
2019-01-03T23:03:46.414Z,99081.91
2019-01-03T23:06:14.607Z,99084.30
2019-01-03T23:08:42.838Z,99076.22
2019-01-03T23:11:11.083Z,99066.27
2019-01-03T23:13:39.257Z,99070.84
2019-01-03T23:16:07.492Z,99076.45
2019-01-03T23:18:35.687Z,99072.45
2019-01-03T23:21:04.094Z,99088.64
2019-01-03T23:23:51.175Z,99097.45
2019-01-03T23:26:19.342Z,99089.58
2019-01-03T23:28:47.534Z,99090.98
2019-01-03T23:31:15.717Z,99103.89
2019-01-03T23:33:43.997Z,99105.75
2019-01-03T23:38:46.448Z,99108.69
2019-01-03T23:41:14.757Z,99106.56
2019-01-03T23:43:42.912Z,99101.70
2019-01-03T23:46:11.109Z,99107.61
2019-01-03T23:48:39.325Z,99097.64
2019-01-03T23:51:07.487Z,99102.23
2019-01-03T23:53:35.641Z,99102.48
2019-01-03T23:56:03.866Z,99092.84
2019-01-03T23:58:32.087Z,99089.07
